sensor_id;sensor_type;location;lat;lon;timestamp;pressure;altitude;pressure_sealevel;temperature;humidity
63556;BME280;49700;48.072;7.800;2023-02-20T00:00:08;100795.00;;;10.15;62.71
63556;BME280;49700;48.072;7.800;2023-02-20T00:02:40;100804.72;;;10.13;62.79
63556;BME280;49700;48.072;7.800;2023-02-20T00:05:05;100797.75;;;10.12;62.83
63556;BME280;49700;48.072;7.800;2023-02-20T00:07:31;100799.56;;;10.10;63.02
63556;BME280;49700;48.072;7.800;2023-02-20T00:09:56;100797.88;;;10.09;63.03
63556;BME280;49700;48.072;7.800;2023-02-20T00:12:21;100798.81;;;10.08;62.89
63556;BME280;49700;48.072;7.800;2023-02-20T00:14:47;100798.72;;;10.09;62.93
63556;BME280;49700;48.072;7.800;2023-02-20T00:17:12;100803.13;;;10.09;62.94
63556;BME280;49700;48.072;7.800;2023-02-20T00:19:37;100799.56;;;10.10;62.88
63556;BME280;49700;48.072;7.800;2023-02-20T00:22:03;100800.50;;;10.09;62.99
63556;BME280;49700;48.072;7.800;2023-02-20T00:24:28;100797.03;;;10.08;62.94
63556;BME280;49700;48.072;7.800;2023-02-20T00:26:54;100793.69;;;10.05;63.09
63556;BME280;49700;48.072;7.800;2023-02-20T00:29:22;100795.44;;;10.04;62.89
63556;BME280;49700;48.072;7.800;2023-02-20T00:31:55;100796.44;;;10.02;63.01
63556;BME280;49700;48.072;7.800;2023-02-20T00:34:23;100808.91;;;9.96;63.09
63556;BME280;49700;48.072;7.800;2023-02-20T00:36:50;100797.00;;;9.88;63.36
63556;BME280;49700;48.072;7.800;2023-02-20T00:39:15;100787.03;;;9.75;63.54
63556;BME280;49700;48.072;7.800;2023-02-20T00:41:41;100799.63;;;9.67;64.03
63556;BME280;49700;48.072;7.800;2023-02-20T00:44:06;100795.47;;;9.62;64.04
63556;BME280;49700;48.072;7.800;2023-02-20T00:46:32;100793.88;;;9.58;64.12
63556;BME280;49700;48.072;7.800;2023-02-20T00:48:57;100795.84;;;9.52;64.15
63556;BME280;49700;48.072;7.800;2023-02-20T00:51:41;100793.41;;;9.48;64.36
63556;BME280;49700;48.072;7.800;2023-02-20T00:54:07;100791.88;;;9.42;64.48
63556;BME280;49700;48.072;7.800;2023-02-20T00:56:32;100796.56;;;9.34;64.57
63556;BME280;49700;48.072;7.800;2023-02-20T00:58:58;100789.88;;;9.27;64.54
63556;BME280;49700;48.072;7.800;2023-02-20T01:01:24;100798.06;;;9.18;64.74
63556;BME280;49700;48.072;7.800;2023-02-20T01:03:50;100791.38;;;9.11;65.02
63556;BME280;49700;48.072;7.800;2023-02-20T01:06:15;100787.16;;;9.06;65.01
63556;BME280;49700;48.072;7.800;2023-02-20T01:08:41;100796.06;;;9.02;65.21
63556;BME280;49700;48.072;7.800;2023-02-20T01:11:07;100783.97;;;8.98;65.48
63556;BME280;49700;48.072;7.800;2023-02-20T01:13:32;100785.03;;;8.94;65.20
63556;BME280;49700;48.072;7.800;2023-02-20T01:15:58;100789.50;;;8.91;65.35
63556;BME280;49700;48.072;7.800;2023-02-20T01:18:24;100788.81;;;8.85;65.36
63556;BME280;49700;48.072;7.800;2023-02-20T01:20:50;100792.66;;;8.77;65.46
63556;BME280;49700;48.072;7.800;2023-02-20T01:23:16;100792.19;;;8.66;65.65
63556;BME280;49700;48.072;7.800;2023-02-20T01:25:41;100796.91;;;8.56;65.64
63556;BME280;49700;48.072;7.800;2023-02-20T01:28:08;100796.41;;;8.46;65.95
63556;BME280;49700;48.072;7.800;2023-02-20T01:30:34;100794.84;;;8.40;66.24
63556;BME280;49700;48.072;7.800;2023-02-20T01:33:01;100800.13;;;8.39;66.11
63556;BME280;49700;48.072;7.800;2023-02-20T01:35:28;100800.13;;;8.39;66.35
63556;BME280;49700;48.072;7.800;2023-02-20T01:37:57;100800.13;;;8.39;66.01
63556;BME280;49700;48.072;7.800;2023-02-20T01:40:24;100791.41;;;8.38;66.06
63556;BME280;49700;48.072;7.800;2023-02-20T01:42:49;100783.56;;;8.37;66.04
63556;BME280;49700;48.072;7.800;2023-02-20T01:47:51;100794.34;;;8.29;66.03
63556;BME280;49700;48.072;7.800;2023-02-20T01:50:19;100798.06;;;8.22;66.17
63556;BME280;49700;48.072;7.800;2023-02-20T01:52:48;100800.97;;;8.14;66.34
63556;BME280;49700;48.072;7.800;2023-02-20T01:55:22;100804.69;;;8.07;66.57
63556;BME280;49700;48.072;7.800;2023-02-20T01:58:04;100794.44;;;8.01;66.45
63556;BME280;49700;48.072;7.800;2023-02-20T02:00:32;100799.72;;;8.00;66.48
63556;BME280;49700;48.072;7.800;2023-02-20T02:03:01;100785.88;;;7.96;66.58
63556;BME280;49700;48.072;7.800;2023-02-20T02:05:29;100792.94;;;7.94;66.76
63556;BME280;49700;48.072;7.800;2023-02-20T02:07:56;100785.13;;;7.92;66.48
63556;BME280;49700;48.072;7.800;2023-02-20T02:10:29;100790.50;;;7.88;66.84
63556;BME280;49700;48.072;7.800;2023-02-20T02:12:56;100786.19;;;7.87;66.85
63556;BME280;49700;48.072;7.800;2023-02-20T02:15:23;100786.31;;;7.84;66.73
63556;BME280;49700;48.072;7.800;2023-02-20T02:37:57;100789.63;;;7.07;67.77
63556;BME280;49700;48.072;7.800;2023-02-20T02:40:40;100784.66;;;6.98;67.95
63556;BME280;49700;48.072;7.800;2023-02-20T02:45:55;100774.56;;;6.86;68.43
63556;BME280;49700;48.072;7.800;2023-02-20T02:50:48;100763.41;;;6.81;68.29
63556;BME280;49700;48.072;7.800;2023-02-20T02:53:14;100774.81;;;6.78;68.42
63556;BME280;49700;48.072;7.800;2023-02-20T02:55:40;100771.41;;;6.75;68.68
63556;BME280;49700;48.072;7.800;2023-02-20T02:58:07;100773.25;;;6.71;68.56
63556;BME280;49700;48.072;7.800;2023-02-20T03:00:50;100777.66;;;6.69;68.93
63556;BME280;49700;48.072;7.800;2023-02-20T03:03:23;100778.59;;;6.67;68.79
63556;BME280;49700;48.072;7.800;2023-02-20T03:05:56;100770.91;;;6.62;68.65
63556;BME280;49700;48.072;7.800;2023-02-20T03:08:35;100763.25;;;6.56;68.83
63556;BME280;49700;48.072;7.800;2023-02-20T03:11:10;100767.78;;;6.49;69.03
63556;BME280;49700;48.072;7.800;2023-02-20T03:13:47;100761.81;;;6.46;69.31
63556;BME280;49700;48.072;7.800;2023-02-20T03:16:45;100770.69;;;6.40;69.33
63556;BME280;49700;48.072;7.800;2023-02-20T03:19:18;100763.06;;;6.32;69.28
63556;BME280;49700;48.072;7.800;2023-02-20T03:21:47;100761.41;;;6.28;69.33
63556;BME280;49700;48.072;7.800;2023-02-20T03:24:15;100753.59;;;6.28;69.51
63556;BME280;49700;48.072;7.800;2023-02-20T03:26:45;100750.94;;;6.30;69.65
63556;BME280;49700;48.072;7.800;2023-02-20T03:29:27;100755.22;;;6.32;69.84
63556;BME280;49700;48.072;7.800;2023-02-20T03:32:02;100749.06;;;6.35;69.34
63556;BME280;49700;48.072;7.800;2023-02-20T03:34:51;100750.03;;;6.31;69.62
63556;BME280;49700;48.072;7.800;2023-02-20T03:37:37;100743.34;;;6.20;69.63
63556;BME280;49700;48.072;7.800;2023-02-20T03:40:22;100750.44;;;6.15;69.81
63556;BME280;49700;48.072;7.800;2023-02-20T03:43:11;100742.69;;;6.14;69.77
63556;BME280;49700;48.072;7.800;2023-02-20T03:45:59;100742.84;;;6.08;69.93
63556;BME280;49700;48.072;7.800;2023-02-20T03:48:42;100741.31;;;6.01;70.09
63556;BME280;49700;48.072;7.800;2023-02-20T03:51:09;100743.06;;;6.00;70.16
63556;BME280;49700;48.072;7.800;2023-02-20T03:53:45;100749.97;;;6.01;70.07
63556;BME280;49700;48.072;7.800;2023-02-20T03:56:15;100742.25;;;5.96;69.95
63556;BME280;49700;48.072;7.800;2023-02-20T03:58:47;100733.75;;;5.88;70.02
63556;BME280;49700;48.072;7.800;2023-02-20T04:01:15;100739.91;;;5.86;70.30
63556;BME280;49700;48.072;7.800;2023-02-20T04:03:46;100739.91;;;5.86;70.07
63556;BME280;49700;48.072;7.800;2023-02-20T04:06:14;100728.59;;;5.87;70.43
63556;BME280;49700;48.072;7.800;2023-02-20T04:11:35;100724.22;;;5.87;70.44
63556;BME280;49700;48.072;7.800;2023-02-20T04:14:02;100720.72;;;5.88;70.21
63556;BME280;49700;48.072;7.800;2023-02-20T04:16:29;100732.16;;;5.83;70.14
63556;BME280;49700;48.072;7.800;2023-02-20T04:18:57;100744.53;;;5.74;70.36
63556;BME280;49700;48.072;7.800;2023-02-20T04:21:32;100743.88;;;5.66;70.33
63556;BME280;49700;48.072;7.800;2023-02-20T04:24:07;100743.06;;;5.64;70.58
63556;BME280;49700;48.072;7.800;2023-02-20T04:26:34;100736.13;;;5.65;70.37
63556;BME280;49700;48.072;7.800;2023-02-20T04:29:00;100737.81;;;5.66;70.58
63556;BME280;49700;48.072;7.800;2023-02-20T04:31:26;100740.44;;;5.66;70.45
63556;BME280;49700;48.072;7.800;2023-02-20T04:33:51;100737.81;;;5.66;70.38
63556;BME280;49700;48.072;7.800;2023-02-20T04:36:22;100750.00;;;5.65;70.56
63556;BME280;49700;48.072;7.800;2023-02-20T04:38:49;100739.66;;;5.62;70.37
63556;BME280;49700;48.072;7.800;2023-02-20T04:41:18;100738.94;;;5.55;70.42
63556;BME280;49700;48.072;7.800;2023-02-20T04:43:44;100741.69;;;5.51;70.53
63556;BME280;49700;48.072;7.800;2023-02-20T04:46:10;100731.31;;;5.48;70.61
63556;BME280;49700;48.072;7.800;2023-02-20T04:48:35;100736.59;;;5.45;70.54
63556;BME280;49700;48.072;7.800;2023-02-20T04:51:02;100724.47;;;5.44;70.79
63556;BME280;49700;48.072;7.800;2023-02-20T04:53:27;100724.50;;;5.42;70.73
63556;BME280;49700;48.072;7.800;2023-02-20T04:55:53;100727.09;;;5.42;70.53
63556;BME280;49700;48.072;7.800;2023-02-20T04:58:21;100737.53;;;5.42;70.72
63556;BME280;49700;48.072;7.800;2023-02-20T05:00:53;100725.41;;;5.41;70.79
63556;BME280;49700;48.072;7.800;2023-02-20T05:03:18;100718.50;;;5.40;70.64
63556;BME280;49700;48.072;7.800;2023-02-20T05:05:44;100736.78;;;5.37;70.50
63556;BME280;49700;48.072;7.800;2023-02-20T05:08:09;100728.25;;;5.30;70.84
63556;BME280;49700;48.072;7.800;2023-02-20T05:10:35;100723.16;;;5.26;70.59
63556;BME280;49700;48.072;7.800;2023-02-20T05:13:01;100722.41;;;5.21;70.90
63556;BME280;49700;48.072;7.800;2023-02-20T05:15:28;100718.19;;;5.15;70.96
63556;BME280;49700;48.072;7.800;2023-02-20T05:17:53;100726.13;;;5.10;70.86
63556;BME280;49700;48.072;7.800;2023-02-20T05:20:19;100722.78;;;5.05;71.10
63556;BME280;49700;48.072;7.800;2023-02-20T05:22:46;100726.41;;;4.98;71.28
63556;BME280;49700;48.072;7.800;2023-02-20T05:25:12;100723.97;;;4.91;71.41
63556;BME280;49700;48.072;7.800;2023-02-20T05:27:38;100724.94;;;4.86;71.52
63556;BME280;49700;48.072;7.800;2023-02-20T05:30:05;100720.66;;;4.84;71.50
63556;BME280;49700;48.072;7.800;2023-02-20T05:32:31;100722.44;;;4.82;71.62
63556;BME280;49700;48.072;7.800;2023-02-20T05:34:56;100713.84;;;4.78;71.39
63556;BME280;49700;48.072;7.800;2023-02-20T05:37:23;100719.97;;;4.76;71.62
63556;BME280;49700;48.072;7.800;2023-02-20T05:39:49;100717.47;;;4.71;71.69
63556;BME280;49700;48.072;7.800;2023-02-20T05:42:16;100715.72;;;4.72;71.70
63556;BME280;49700;48.072;7.800;2023-02-20T05:44:41;100712.25;;;4.73;71.63
63556;BME280;49700;48.072;7.800;2023-02-20T05:47:07;100716.69;;;4.66;71.72
63556;BME280;49700;48.072;7.800;2023-02-20T05:49:33;100714.19;;;4.61;71.74
63556;BME280;49700;48.072;7.800;2023-02-20T05:52:00;100710.91;;;4.53;71.83
63556;BME280;49700;48.072;7.800;2023-02-20T05:54:45;100709.28;;;4.48;72.29
63556;BME280;49700;48.072;7.800;2023-02-20T05:57:16;100709.25;;;4.49;72.25
63556;BME280;49700;48.072;7.800;2023-02-20T05:59:52;100704.91;;;4.51;72.36
63556;BME280;49700;48.072;7.800;2023-02-20T06:02:42;100710.13;;;4.50;71.93
63556;BME280;49700;48.072;7.800;2023-02-20T06:05:23;100711.88;;;4.48;72.28
63556;BME280;49700;48.072;7.800;2023-02-20T06:07:50;100708.41;;;4.49;72.39
63556;BME280;49700;48.072;7.800;2023-02-20T06:10:34;100723.97;;;4.50;72.16
63556;BME280;49700;48.072;7.800;2023-02-20T06:13:10;100719.59;;;4.54;72.10
63556;BME280;49700;48.072;7.800;2023-02-20T06:15:50;100713.44;;;4.56;72.24
63556;BME280;49700;48.072;7.800;2023-02-20T06:18:32;100718.59;;;4.59;72.05
63556;BME280;49700;48.072;7.800;2023-02-20T06:21:05;100718.53;;;4.61;72.00
63556;BME280;49700;48.072;7.800;2023-02-20T06:23:37;100717.69;;;4.60;72.03
63556;BME280;49700;48.072;7.800;2023-02-20T06:26:13;100718.59;;;4.59;72.20
63556;BME280;49700;48.072;7.800;2023-02-20T06:28:39;100719.59;;;4.54;71.75
63556;BME280;49700;48.072;7.800;2023-02-20T06:31:23;100733.50;;;4.51;72.14
63556;BME280;49700;48.072;7.800;2023-02-20T06:34:13;100731.84;;;4.47;72.14
63556;BME280;49700;48.072;7.800;2023-02-20T06:36:51;100726.66;;;4.47;72.22
63556;BME280;49700;48.072;7.800;2023-02-20T06:39:19;100711.88;;;4.48;72.24
63556;BME280;49700;48.072;7.800;2023-02-20T06:41:45;100718.84;;;4.47;72.23
63556;BME280;49700;48.072;7.800;2023-02-20T06:44:25;100729.38;;;4.41;72.51
63556;BME280;49700;48.072;7.800;2023-02-20T06:46:59;100735.50;;;4.38;72.26
63556;BME280;49700;48.072;7.800;2023-02-20T06:49:53;100734.66;;;4.38;72.45
63556;BME280;49700;48.072;7.800;2023-02-20T06:52:39;100736.47;;;4.33;72.64
63556;BME280;49700;48.072;7.800;2023-02-20T06:55:21;100729.53;;;4.33;72.47
63556;BME280;49700;48.072;7.800;2023-02-20T06:57:55;100726.00;;;4.36;72.60
63556;BME280;49700;48.072;7.800;2023-02-20T07:00:28;100730.28;;;4.38;72.31
63556;BME280;49700;48.072;7.800;2023-02-20T07:03:05;100730.16;;;4.44;72.47
63556;BME280;49700;48.072;7.800;2023-02-20T07:05:36;100726.56;;;4.50;72.40
63556;BME280;49700;48.072;7.800;2023-02-20T07:08:22;100724.72;;;4.57;72.12
63556;BME280;49700;48.072;7.800;2023-02-20T07:10:50;100729.03;;;4.58;72.32
63556;BME280;49700;48.072;7.800;2023-02-20T07:13:32;100725.47;;;4.62;71.95
63556;BME280;49700;48.072;7.800;2023-02-20T07:16:06;100726.25;;;4.65;71.94
63556;BME280;49700;48.072;7.800;2023-02-20T07:18:34;100730.53;;;4.68;72.09
63556;BME280;49700;48.072;7.800;2023-02-20T07:21:05;100729.56;;;4.72;72.00
63556;BME280;49700;48.072;7.800;2023-02-20T07:23:39;100725.19;;;4.76;71.94
63556;BME280;49700;48.072;7.800;2023-02-20T07:26:20;100725.88;;;4.84;71.80
63556;BME280;49700;48.072;7.800;2023-02-20T07:29:16;100726.56;;;4.92;71.59
63556;BME280;49700;48.072;7.800;2023-02-20T07:31:51;100735.91;;;4.99;71.31
63556;BME280;49700;48.072;7.800;2023-02-20T07:34:20;100734.06;;;5.06;71.50
63556;BME280;49700;48.072;7.800;2023-02-20T07:36:45;100739.16;;;5.10;71.19
63556;BME280;49700;48.072;7.800;2023-02-20T07:39:13;100738.97;;;5.18;71.49
63556;BME280;49700;48.072;7.800;2023-02-20T07:41:59;100730.94;;;5.27;71.14
63556;BME280;49700;48.072;7.800;2023-02-20T07:44:49;100728.03;;;5.40;70.94
63556;BME280;49700;48.072;7.800;2023-02-20T07:47:34;100734.72;;;5.50;70.80
63556;BME280;49700;48.072;7.800;2023-02-20T07:50:05;100730.09;;;5.61;70.22
63556;BME280;49700;48.072;7.800;2023-02-20T07:52:50;100730.66;;;5.74;70.04
63556;BME280;49700;48.072;7.800;2023-02-20T07:55:26;100725.16;;;5.85;69.85
63556;BME280;49700;48.072;7.800;2023-02-20T07:58:00;100730.13;;;5.95;70.10
63556;BME280;49700;48.072;7.800;2023-02-20T08:00:26;100735.06;;;6.06;69.41
63556;BME280;49700;48.072;7.800;2023-02-20T08:03:17;100736.44;;;6.19;69.36
63556;BME280;49700;48.072;7.800;2023-02-20T08:06:18;100736.09;;;6.32;69.02
63556;BME280;49700;48.072;7.800;2023-02-20T08:08:50;100740.13;;;6.43;68.71
63556;BME280;49700;48.072;7.800;2023-02-20T08:11:22;100734.59;;;6.54;68.80
63556;BME280;49700;48.072;7.800;2023-02-20T08:13:58;100728.16;;;6.66;68.51
63556;BME280;49700;48.072;7.800;2023-02-20T08:16:26;100731.28;;;6.77;68.18
63556;BME280;49700;48.072;7.800;2023-02-20T08:18:52;100729.25;;;6.89;68.37
63556;BME280;49700;48.072;7.800;2023-02-20T08:21:18;100726.31;;;6.98;68.10
63556;BME280;49700;48.072;7.800;2023-02-20T08:24:10;100724.13;;;7.12;67.86
63556;BME280;49700;48.072;7.800;2023-02-20T08:26:49;100728.88;;;7.27;67.58
63556;BME280;49700;48.072;7.800;2023-02-20T08:29:15;100731.91;;;7.42;67.09
63556;BME280;49700;48.072;7.800;2023-02-20T08:31:42;100724.50;;;7.54;67.01
63556;BME280;49700;48.072;7.800;2023-02-20T08:34:08;100725.00;;;7.66;66.64
63556;BME280;49700;48.072;7.800;2023-02-20T08:36:46;100716.69;;;7.80;66.48
63556;BME280;49700;48.072;7.800;2023-02-20T08:39:18;100708.41;;;7.92;65.84
63556;BME280;49700;48.072;7.800;2023-02-20T08:41:53;100712.31;;;8.05;65.56
63556;BME280;49700;48.072;7.800;2023-02-20T08:44:20;100714.16;;;8.27;65.49
63556;BME280;49700;48.072;7.800;2023-02-20T08:46:52;100712.25;;;9.01;64.37
63556;BME280;49700;48.072;7.800;2023-02-20T08:49:20;100705.94;;;10.10;61.64
63556;BME280;49700;48.072;7.800;2023-02-20T08:52:06;100697.75;;;11.30;58.66
63556;BME280;49700;48.072;7.800;2023-02-20T08:54:31;100693.47;;;12.32;56.31
63556;BME280;49700;48.072;7.800;2023-02-20T08:57:10;100684.63;;;13.28;53.85
63556;BME280;49700;48.072;7.800;2023-02-20T08:59:48;100682.34;;;13.97;51.57
63556;BME280;49700;48.072;7.800;2023-02-20T09:02:23;100679.59;;;14.41;49.88
63556;BME280;49700;48.072;7.800;2023-02-20T09:04:56;100670.94;;;14.95;48.53
63556;BME280;49700;48.072;7.800;2023-02-20T09:07:24;100666.25;;;15.65;46.93
63556;BME280;49700;48.072;7.800;2023-02-20T09:09:55;100664.84;;;16.49;44.87
63556;BME280;49700;48.072;7.800;2023-02-20T09:12:31;100656.78;;;17.12;43.40
63556;BME280;49700;48.072;7.800;2023-02-20T09:15:02;100653.59;;;17.66;42.46
63556;BME280;49700;48.072;7.800;2023-02-20T09:17:47;100660.34;;;18.39;41.18
63556;BME280;49700;48.072;7.800;2023-02-20T09:20:20;100650.19;;;18.99;39.99
63556;BME280;49700;48.072;7.800;2023-02-20T09:23:19;100655.09;;;19.47;38.97
63556;BME280;49700;48.072;7.800;2023-02-20T09:25:51;100642.19;;;19.52;38.23
63556;BME280;49700;48.072;7.800;2023-02-20T09:28:31;100650.16;;;19.63;37.82
63556;BME280;49700;48.072;7.800;2023-02-20T09:31:19;100644.78;;;19.75;37.98
63556;BME280;49700;48.072;7.800;2023-02-20T09:33:45;100635.13;;;19.83;37.33
63556;BME280;49700;48.072;7.800;2023-02-20T09:36:14;100632.75;;;19.90;37.24
63556;BME280;49700;48.072;7.800;2023-02-20T09:38:39;100632.91;;;19.88;37.04
63556;BME280;49700;48.072;7.800;2023-02-20T09:41:12;100624.47;;;19.83;36.94
63556;BME280;49700;48.072;7.800;2023-02-20T09:43:52;100627.59;;;19.88;36.82
63556;BME280;49700;48.072;7.800;2023-02-20T09:46:22;100622.53;;;19.95;36.60
63556;BME280;49700;48.072;7.800;2023-02-20T09:49:00;100629.59;;;19.96;36.29
63556;BME280;49700;48.072;7.800;2023-02-20T09:51:30;100623.22;;;19.87;35.97
63556;BME280;49700;48.072;7.800;2023-02-20T09:54:04;100622.72;;;19.73;36.10
63556;BME280;49700;48.072;7.800;2023-02-20T09:56:34;100621.59;;;19.54;36.35
63556;BME280;49700;48.072;7.800;2023-02-20T09:59:09;100622.38;;;19.24;36.66
63556;BME280;49700;48.072;7.800;2023-02-20T10:01:40;100622.06;;;18.63;37.26
63556;BME280;49700;48.072;7.800;2023-02-20T10:04:14;100621.16;;;18.30;38.11
63556;BME280;49700;48.072;7.800;2023-02-20T10:06:43;100618.63;;;17.83;38.41
63556;BME280;49700;48.072;7.800;2023-02-20T10:09:12;100616.91;;;17.24;39.06
63556;BME280;49700;48.072;7.800;2023-02-20T10:15:13;100628.34;;;16.16;40.18
63556;BME280;49700;48.072;7.800;2023-02-20T10:23:32;100625.22;;;16.35;40.44
63556;BME280;49700;48.072;7.800;2023-02-20T10:26:25;100625.03;;;16.62;39.86
63556;BME280;49700;48.072;7.800;2023-02-20T10:28:51;100622.16;;;16.65;39.61
63556;BME280;49700;48.072;7.800;2023-02-20T10:31:36;100628.53;;;16.63;39.91
63556;BME280;49700;48.072;7.800;2023-02-20T10:34:10;100635.38;;;16.41;40.33
63556;BME280;49700;48.072;7.800;2023-02-20T10:36:48;100626.81;;;16.25;40.21
63556;BME280;49700;48.072;7.800;2023-02-20T10:39:18;100625.47;;;16.19;40.78
63556;BME280;49700;48.072;7.800;2023-02-20T10:41:53;100617.72;;;16.29;40.81
63556;BME280;49700;48.072;7.800;2023-02-20T10:47:27;100610.22;;;16.47;40.54
63556;BME280;49700;48.072;7.800;2023-02-20T10:50:03;100609.63;;;16.30;40.61
63556;BME280;49700;48.072;7.800;2023-02-20T10:52:35;100604.91;;;16.10;40.84
63556;BME280;49700;48.072;7.800;2023-02-20T10:55:08;100599.72;;;15.96;40.83
63556;BME280;49700;48.072;7.800;2023-02-20T10:57:39;100593.28;;;15.87;41.13
63556;BME280;49700;48.072;7.800;2023-02-20T11:00:15;100595.91;;;15.74;41.39
63556;BME280;49700;48.072;7.800;2023-02-20T11:03:05;100592.19;;;15.64;41.87
63556;BME280;49700;48.072;7.800;2023-02-20T11:05:37;100582.66;;;15.61;41.76
63556;BME280;49700;48.072;7.800;2023-02-20T11:08:04;100580.53;;;15.54;41.85
63556;BME280;49700;48.072;7.800;2023-02-20T11:10:30;100571.84;;;15.52;42.08
63556;BME280;49700;48.072;7.800;2023-02-20T11:12:57;100561.38;;;15.50;42.16
63556;BME280;49700;48.072;7.800;2023-02-20T11:15:27;100563.06;;;15.51;42.34
63556;BME280;49700;48.072;7.800;2023-02-20T11:17:55;100555.00;;;15.53;42.23
63556;BME280;49700;48.072;7.800;2023-02-20T11:23:40;100540.94;;;15.26;43.11
63556;BME280;49700;48.072;7.800;2023-02-20T11:29:11;100537.84;;;15.20;42.79
63556;BME280;49700;48.072;7.800;2023-02-20T11:31:39;100530.22;;;15.15;43.28
63556;BME280;49700;48.072;7.800;2023-02-20T11:34:14;100529.16;;;15.05;43.28
63556;BME280;49700;48.072;7.800;2023-02-20T11:36:50;100517.41;;;14.96;43.53
63556;BME280;49700;48.072;7.800;2023-02-20T11:39:20;100511.03;;;14.86;43.68
63556;BME280;49700;48.072;7.800;2023-02-20T11:41:49;100489.75;;;14.75;43.66
63556;BME280;49700;48.072;7.800;2023-02-20T11:44:28;100485.59;;;14.71;43.93
63556;BME280;49700;48.072;7.800;2023-02-20T11:47:10;100480.84;;;14.76;43.91
63556;BME280;49700;48.072;7.800;2023-02-20T11:49:40;100463.09;;;14.78;44.19
63556;BME280;49700;48.072;7.800;2023-02-20T11:52:17;100458.84;;;14.75;44.52
63556;BME280;49700;48.072;7.800;2023-02-20T11:54:43;100442.53;;;14.69;44.40
63556;BME280;49700;48.072;7.800;2023-02-20T11:59:46;100461.38;;;14.64;44.21
63556;BME280;49700;48.072;7.800;2023-02-20T12:05:06;100464.03;;;14.64;45.02
63556;BME280;49700;48.072;7.800;2023-02-20T12:07:54;100449.41;;;14.71;44.76
63556;BME280;49700;48.072;7.800;2023-02-20T12:10:28;100437.56;;;14.77;44.46
63556;BME280;49700;48.072;7.800;2023-02-20T12:12:55;100431.34;;;14.78;44.34
63556;BME280;49700;48.072;7.800;2023-02-20T12:15:23;100415.19;;;14.82;44.21
63556;BME280;49700;48.072;7.800;2023-02-20T12:20:25;100434.00;;;14.91;44.34
63556;BME280;49700;48.072;7.800;2023-02-20T12:26:12;100432.19;;;15.04;44.18
63556;BME280;49700;48.072;7.800;2023-02-20T12:36:37;100445.34;;;15.18;44.22
63556;BME280;49700;48.072;7.800;2023-02-20T12:47:01;100431.78;;;15.23;44.19
63556;BME280;49700;48.072;7.800;2023-02-20T12:50:05;100429.84;;;15.25;44.28
63556;BME280;49700;48.072;7.800;2023-02-20T13:00:39;100411.00;;;15.30;44.24
63556;BME280;49700;48.072;7.800;2023-02-20T13:03:32;100403.69;;;15.33;44.48
63556;BME280;49700;48.072;7.800;2023-02-20T13:05:59;100396.59;;;15.34;44.19
63556;BME280;49700;48.072;7.800;2023-02-20T13:08:33;100388.56;;;15.35;43.66
63556;BME280;49700;48.072;7.800;2023-02-20T13:11:05;100390.13;;;15.38;43.62
63556;BME280;49700;48.072;7.800;2023-02-20T13:13:49;100388.25;;;15.40;43.47
63556;BME280;49700;48.072;7.800;2023-02-20T13:16:31;100380.06;;;15.43;42.70
63556;BME280;49700;48.072;7.800;2023-02-20T13:19:20;100369.25;;;15.46;42.83
63556;BME280;49700;48.072;7.800;2023-02-20T13:21:48;100369.66;;;15.53;42.38
63556;BME280;49700;48.072;7.800;2023-02-20T13:26:49;100365.84;;;15.69;41.70
63556;BME280;49700;48.072;7.800;2023-02-20T13:29:19;100352.22;;;15.74;41.18
63556;BME280;49700;48.072;7.800;2023-02-20T13:31:58;100349.47;;;15.76;41.16
63556;BME280;49700;48.072;7.800;2023-02-20T13:54:32;100311.13;;;15.92;40.06
63556;BME280;49700;48.072;7.800;2023-02-20T13:57:19;100319.72;;;15.96;40.07
63556;BME280;49700;48.072;7.800;2023-02-20T14:00:07;100322.00;;;16.01;39.85
63556;BME280;49700;48.072;7.800;2023-02-20T14:06:20;100297.47;;;16.10;39.79
63556;BME280;49700;48.072;7.800;2023-02-20T14:09:25;100286.66;;;16.13;39.96
63556;BME280;49700;48.072;7.800;2023-02-20T14:15:26;100288.47;;;16.12;39.97
63556;BME280;49700;48.072;7.800;2023-02-20T14:18:15;100282.41;;;16.10;40.14
63556;BME280;49700;48.072;7.800;2023-02-20T14:20:42;100280.00;;;16.07;40.39
63556;BME280;49700;48.072;7.800;2023-02-20T14:23:24;100275.53;;;16.08;40.50
63556;BME280;49700;48.072;7.800;2023-02-20T14:28:19;100263.03;;;16.10;40.14
63556;BME280;49700;48.072;7.800;2023-02-20T14:30:44;100264.84;;;16.09;39.76
63556;BME280;49700;48.072;7.800;2023-02-20T14:33:39;100263.63;;;16.13;39.86
63556;BME280;49700;48.072;7.800;2023-02-20T14:41:23;100252.22;;;16.24;39.86
63556;BME280;49700;48.072;7.800;2023-02-20T14:43:54;100254.75;;;16.26;39.90
63556;BME280;49700;48.072;7.800;2023-02-20T14:46:28;100245.94;;;16.25;40.03
63556;BME280;49700;48.072;7.800;2023-02-20T14:49:11;100237.97;;;16.25;39.99
63556;BME280;49700;48.072;7.800;2023-02-20T14:51:37;100243.19;;;16.27;39.97
63556;BME280;49700;48.072;7.800;2023-02-20T14:54:22;100240.53;;;16.27;40.09
63556;BME280;49700;48.072;7.800;2023-02-20T14:56:48;100238.59;;;16.29;40.03
63556;BME280;49700;48.072;7.800;2023-02-20T14:59:23;100237.63;;;16.30;39.73
63556;BME280;49700;48.072;7.800;2023-02-20T15:01:55;100240.41;;;16.28;39.78
63556;BME280;49700;48.072;7.800;2023-02-20T15:04:23;100236.19;;;16.26;39.66
63556;BME280;49700;48.072;7.800;2023-02-20T15:06:51;100226.53;;;16.25;39.82
63556;BME280;49700;48.072;7.800;2023-02-20T15:09:18;100230.25;;;16.22;39.72
63556;BME280;49700;48.072;7.800;2023-02-20T15:11:53;100220.63;;;16.21;39.99
63556;BME280;49700;48.072;7.800;2023-02-20T15:14:23;100225.22;;;16.19;39.99
63556;BME280;49700;48.072;7.800;2023-02-20T15:19:39;100214.34;;;16.22;40.27
63556;BME280;49700;48.072;7.800;2023-02-20T15:22:21;100204.84;;;16.20;40.21
63556;BME280;49700;48.072;7.800;2023-02-20T15:24:47;100210.38;;;16.17;40.63
63556;BME280;49700;48.072;7.800;2023-02-20T15:27:18;100209.66;;;16.14;40.50